Time;durP1;ratioP1;P1;durP2;ratioP2;P2;SDS_P1;SDS_P2;PMS_P1;PMS_P2;Temp;Humidity;BMP_temperature;BMP_pressure;BME280_temperature;BME280_humidity;BME280_pressure;Samples;Min_cycle;Max_cycle;Signal;HPM_P1;HPM_P2
2022/07/30 00:02:04;;;;;;;7.30;5.00;;;19.60;73.70;;;;;;5066101;28;20202;-75
2022/07/30 00:04:31;;;;;;;8.13;5.67;;;19.60;74.00;;;;;;5063462;28;20628;-74
2022/07/30 00:06:57;;;;;;;8.23;5.20;;;19.60;74.60;;;;;;5063192;28;20283;-73
2022/07/30 00:09:22;;;;;;;8.10;5.57;;;19.70;73.70;;;;;;5061950;28;20959;-73
2022/07/30 00:11:48;;;;;;;10.63;5.80;;;19.70;74.30;;;;;;5064545;28;20465;-72
2022/07/30 00:14:14;;;;;;;8.50;6.33;;;19.70;75.50;;;;;;5060285;28;20191;-74
2022/07/30 00:16:39;;;;;;;7.40;5.60;;;19.70;75.80;;;;;;5058484;28;20763;-75
2022/07/30 00:19:05;;;;;;;5.93;5.07;;;19.60;74.90;;;;;;5063061;28;20184;-73
2022/07/30 00:21:31;;;;;;;10.53;6.57;;;19.60;74.80;;;;;;5064143;28;20682;-73
2022/07/30 00:23:56;;;;;;;8.10;5.30;;;19.60;75.20;;;;;;5061539;28;20264;-73
2022/07/30 00:26:22;;;;;;;11.30;5.90;;;19.70;74.90;;;;;;5054559;28;20653;-73
2022/07/30 00:28:47;;;;;;;11.73;5.20;;;19.60;75.10;;;;;;5059042;28;20611;-72
2022/07/30 00:31:13;;;;;;;8.23;5.47;;;19.60;75.10;;;;;;5065935;28;20210;-72
2022/07/30 00:33:38;;;;;;;8.70;5.17;;;19.60;74.60;;;;;;5058005;28;20705;-73
2022/07/30 00:36:04;;;;;;;8.93;5.43;;;19.60;74.00;;;;;;5064289;28;20229;-73
2022/07/30 00:38:30;;;;;;;5.90;4.87;;;19.50;74.30;;;;;;5057228;28;20200;-73
2022/07/30 00:40:57;;;;;;;9.87;5.70;;;19.50;75.70;;;;;;5062004;28;20198;-73
2022/07/30 00:43:22;;;;;;;8.30;5.63;;;19.50;76.20;;;;;;5063949;28;20566;-72
2022/07/30 00:45:48;;;;;;;9.80;5.73;;;19.50;76.80;;;;;;5063707;28;20483;-73
2022/07/30 00:48:14;;;;;;;15.20;6.77;;;19.50;77.00;;;;;;5062058;28;20978;-73
2022/07/30 00:50:40;;;;;;;9.70;5.93;;;19.50;77.40;;;;;;5066577;28;21047;-74
2022/07/30 00:53:06;;;;;;;9.40;6.63;;;19.50;78.40;;;;;;5066597;28;20418;-72
2022/07/30 00:55:32;;;;;;;8.37;6.30;;;19.50;79.00;;;;;;5066028;28;20668;-72
2022/07/30 00:57:58;;;;;;;7.60;6.53;;;19.40;79.70;;;;;;5066216;28;20296;-73
2022/07/30 01:00:25;;;;;;;10.00;6.80;;;19.40;80.20;;;;;;5065678;28;20517;-75
2022/07/30 01:02:50;;;;;;;9.27;6.53;;;19.50;80.30;;;;;;5065378;28;20185;-73
2022/07/30 01:05:16;;;;;;;7.30;5.90;;;19.50;80.50;;;;;;5061677;28;20571;-73
2022/07/30 01:07:42;;;;;;;7.80;6.27;;;19.50;80.50;;;;;;5066240;28;20211;-73
2022/07/30 01:10:12;;;;;;;12.50;7.33;;;19.60;80.50;;;;;;5067541;28;20210;-73
2022/07/30 01:12:38;;;;;;;11.20;7.27;;;19.60;80.30;;;;;;5059647;28;20447;-72
2022/07/30 01:15:06;;;;;;;7.93;6.50;;;19.60;80.50;;;;;;5068214;28;21069;-72
2022/07/30 01:17:33;;;;;;;8.43;6.90;;;19.70;80.50;;;;;;5059297;28;21272;-73
2022/07/30 01:20:05;;;;;;;8.20;6.63;;;19.80;80.20;;;;;;5065931;28;20418;-72
2022/07/30 01:23:11;;;;;;;12.63;7.10;;;19.80;80.50;;;;;;5063862;28;20534;-73
2022/07/30 01:25:49;;;;;;;8.23;7.37;;;19.80;80.20;;;;;;5016632;28;20424;-74
2022/07/30 01:28:19;;;;;;;9.57;6.67;;;19.70;79.90;;;;;;5014209;28;20486;-73
2022/07/30 01:30:46;;;;;;;9.50;7.43;;;19.70;80.20;;;;;;5016806;28;20467;-73
2022/07/30 01:33:15;;;;;;;10.30;7.07;;;19.60;80.00;;;;;;5023644;28;20469;-73
2022/07/30 01:35:43;;;;;;;10.37;6.60;;;19.60;80.30;;;;;;5017271;28;20941;-74
2022/07/30 01:38:11;;;;;;;8.20;6.97;;;19.60;80.60;;;;;;5016048;28;20550;-73
2022/07/30 01:40:39;;;;;;;9.10;5.90;;;19.60;80.90;;;;;;5022042;28;20513;-74
2022/07/30 01:43:07;;;;;;;9.60;7.27;;;19.50;80.90;;;;;;5022954;28;20411;-74
2022/07/30 01:45:33;;;;;;;8.30;6.13;;;19.50;81.90;;;;;;5002089;28;20451;-74
2022/07/30 01:48:02;;;;;;;10.83;7.13;;;19.40;82.20;;;;;;5022673;28;20515;-74
2022/07/30 01:50:29;;;;;;;11.23;7.40;;;19.40;82.20;;;;;;5000304;28;20494;-74
2022/07/30 01:52:57;;;;;;;9.23;6.30;;;19.40;82.50;;;;;;5005450;28;20516;-74
2022/07/30 01:55:42;;;;;;;8.77;6.57;;;19.30;83.00;;;;;;5017158;28;20505;-74
2022/07/30 01:58:10;;;;;;;10.27;7.07;;;19.20;83.60;;;;;;5019016;28;20500;-73
2022/07/30 02:00:39;;;;;;;10.37;7.17;;;19.00;83.70;;;;;;5022142;28;20425;-75
2022/07/30 02:03:07;;;;;;;7.07;6.00;;;18.90;84.30;;;;;;5063590;28;20422;-73
2022/07/30 02:05:35;;;;;;;8.10;6.90;;;18.80;84.40;;;;;;5059840;28;20434;-73
2022/07/30 02:08:04;;;;;;;10.40;6.80;;;18.80;84.70;;;;;;5056224;28;20618;-73
2022/07/30 02:10:42;;;;;;;11.20;7.40;;;18.80;84.30;;;;;;5065556;28;21022;-74
2022/07/30 02:13:11;;;;;;;8.80;7.10;;;18.80;84.70;;;;;;5061133;28;20516;-75
2022/07/30 02:16:02;;;;;;;8.43;6.43;;;18.70;84.70;;;;;;5068774;28;20423;-73
2022/07/30 02:18:39;;;;;;;11.37;7.57;;;18.70;84.70;;;;;;5061277;28;20521;-74
2022/07/30 02:21:08;;;;;;;8.97;6.97;;;18.60;85.50;;;;;;5067241;28;20909;-74
2022/07/30 02:23:45;;;;;;;10.80;7.00;;;18.60;86.30;;;;;;5061250;28;21205;-74
2022/07/30 02:26:18;;;;;;;8.50;6.30;;;18.60;86.00;;;;;;5065659;28;20418;-73
2022/07/30 02:28:50;;;;;;;7.73;6.70;;;18.70;84.40;;;;;;5061369;28;20451;-73
2022/07/30 02:31:19;;;;;;;7.80;6.30;;;18.70;83.80;;;;;;5080519;28;20469;-72
2022/07/30 02:33:49;;;;;;;8.27;6.30;;;18.70;83.60;;;;;;5083778;28;20475;-73
2022/07/30 02:36:17;;;;;;;8.33;7.00;;;18.80;84.10;;;;;;5078976;28;20484;-73
2022/07/30 02:38:44;;;;;;;8.60;5.90;;;18.60;84.30;;;;;;5078407;28;20514;-73
2022/07/30 02:41:11;;;;;;;11.17;7.10;;;18.50;84.70;;;;;;5073993;28;20416;-73
2022/07/30 02:43:39;;;;;;;8.20;6.70;;;18.60;85.30;;;;;;5076121;28;20472;-73
2022/07/30 02:46:06;;;;;;;7.30;6.33;;;18.50;85.70;;;;;;5073137;28;20940;-73
2022/07/30 02:48:33;;;;;;;8.93;6.27;;;18.40;85.90;;;;;;5074063;28;20538;-72
2022/07/30 02:51:01;;;;;;;7.87;6.70;;;18.30;86.00;;;;;;5081640;28;20533;-73
2022/07/30 02:53:28;;;;;;;8.00;6.73;;;18.30;85.70;;;;;;5075374;28;20487;-73
2022/07/30 02:55:55;;;;;;;8.93;6.43;;;18.20;85.20;;;;;;5071689;28;20407;-74
2022/07/30 02:58:23;;;;;;;9.23;6.20;;;18.20;84.70;;;;;;5066971;28;20458;-73
2022/07/30 03:00:52;;;;;;;7.50;6.30;;;18.20;84.40;;;;;;5070174;28;20419;-72
2022/07/30 03:03:19;;;;;;;7.90;6.17;;;18.20;84.10;;;;;;5072598;28;20431;-73
2022/07/30 03:05:48;;;;;;;8.60;7.10;;;18.20;83.80;;;;;;5071345;28;20436;-73
2022/07/30 03:08:15;;;;;;;8.80;6.07;;;18.30;83.40;;;;;;5067660;28;20884;-72
2022/07/30 03:10:43;;;;;;;6.73;5.67;;;18.40;83.10;;;;;;5067919;28;20636;-73
2022/07/30 03:13:11;;;;;;;9.10;6.10;;;18.40;83.00;;;;;;5065405;28;20428;-74
2022/07/30 03:15:40;;;;;;;9.17;6.30;;;18.50;83.30;;;;;;5071702;28;20411;-72
2022/07/30 03:18:10;;;;;;;8.80;5.77;;;18.50;83.10;;;;;;5068382;28;20590;-73
2022/07/30 03:20:37;;;;;;;11.20;6.40;;;18.50;83.10;;;;;;5066489;28;20515;-74
2022/07/30 03:23:04;;;;;;;8.80;6.50;;;18.50;83.00;;;;;;5064679;28;20488;-71
2022/07/30 03:25:31;;;;;;;8.07;5.93;;;18.50;83.40;;;;;;5070583;28;20424;-73
2022/07/30 03:27:59;;;;;;;7.03;5.70;;;18.50;83.70;;;;;;5070635;28;20461;-71
2022/07/30 03:30:26;;;;;;;13.00;6.67;;;18.50;83.00;;;;;;5062393;28;20476;-71
2022/07/30 03:32:54;;;;;;;8.87;6.80;;;18.50;82.10;;;;;;5068663;28;20928;-73
2022/07/30 03:35:21;;;;;;;15.40;7.20;;;18.40;81.50;;;;;;5068216;28;20456;-72
2022/07/30 03:37:47;;;;;;;9.80;6.40;;;18.40;82.40;;;;;;5065792;28;20451;-72
2022/07/30 03:40:14;;;;;;;10.60;6.07;;;18.40;82.40;;;;;;5069961;28;20902;-69
2022/07/30 03:42:40;;;;;;;9.00;6.00;;;18.40;82.50;;;;;;5066410;28;20406;-70
2022/07/30 03:45:07;;;;;;;14.13;6.77;;;18.40;82.80;;;;;;5063270;28;20996;-71
2022/07/30 03:47:37;;;;;;;8.93;6.67;;;18.40;83.10;;;;;;5064697;28;20550;-70
2022/07/30 03:50:04;;;;;;;10.40;6.37;;;18.40;83.60;;;;;;5066457;28;20446;-71
2022/07/30 03:52:33;;;;;;;8.43;6.47;;;18.30;83.60;;;;;;5071273;28;20437;-71
2022/07/30 03:55:00;;;;;;;9.60;6.47;;;18.30;83.00;;;;;;5070053;28;20469;-70
2022/07/30 03:57:26;;;;;;;9.83;6.63;;;18.20;83.10;;;;;;5063125;28;20445;-72
2022/07/30 03:59:51;;;;;;;12.17;7.40;;;18.20;83.30;;;;;;5064240;28;20422;-72
2022/07/30 04:02:17;;;;;;;8.27;6.43;;;18.10;83.40;;;;;;5070233;28;20199;-70
2022/07/30 04:04:43;;;;;;;16.77;6.53;;;18.10;83.40;;;;;;5069731;28;20184;-71
2022/07/30 04:07:09;;;;;;;9.37;6.47;;;18.10;83.40;;;;;;5065975;28;20278;-72
2022/07/30 04:09:34;;;;;;;10.43;6.50;;;18.00;83.40;;;;;;5070097;28;20697;-72
2022/07/30 04:12:00;;;;;;;8.47;5.90;;;18.00;83.30;;;;;;5072068;28;20464;-71
2022/07/30 04:14:26;;;;;;;8.30;6.07;;;18.00;83.10;;;;;;5074329;28;20259;-71
2022/07/30 04:17:02;;;;;;;9.33;6.20;;;18.00;83.60;;;;;;5074536;28;20497;-72
2022/07/30 04:19:40;;;;;;;9.37;6.10;;;17.90;83.60;;;;;;5076547;28;20178;-72
2022/07/30 04:22:07;;;;;;;10.00;6.80;;;17.90;83.40;;;;;;5066315;28;20432;-70
2022/07/30 04:24:34;;;;;;;8.80;6.33;;;17.90;83.40;;;;;;5066539;28;20854;-72
2022/07/30 04:27:01;;;;;;;12.87;6.70;;;17.90;83.80;;;;;;5067350;28;20467;-71
2022/07/30 04:29:27;;;;;;;12.93;6.43;;;17.90;83.80;;;;;;5068170;28;20427;-71
2022/07/30 04:31:53;;;;;;;13.53;6.83;;;17.90;83.80;;;;;;5068834;28;20491;-71
2022/07/30 04:34:19;;;;;;;9.70;6.40;;;17.90;83.70;;;;;;5071131;28;20326;-72
2022/07/30 04:36:45;;;;;;;9.17;7.30;;;17.90;83.70;;;;;;5062302;28;20542;-70
2022/07/30 04:39:10;;;;;;;8.43;6.43;;;17.90;83.40;;;;;;5066939;28;20833;-72
2022/07/30 04:41:36;;;;;;;9.10;6.17;;;17.90;83.70;;;;;;5072277;28;20669;-71
2022/07/30 04:44:02;;;;;;;8.93;6.70;;;17.90;83.70;;;;;;5074071;28;20206;-70
2022/07/30 04:46:28;;;;;;;9.53;6.77;;;17.90;83.60;;;;;;5071604;28;20267;-70
2022/07/30 04:48:53;;;;;;;9.63;7.50;;;17.90;83.80;;;;;;5073224;28;20180;-71
2022/07/30 04:51:24;;;;;;;12.77;7.10;;;17.90;84.10;;;;;;5074927;28;20757;-72
2022/07/30 04:53:50;;;;;;;9.33;7.80;;;18.00;84.10;;;;;;5075239;28;20188;-71
2022/07/30 04:56:19;;;;;;;11.07;7.93;;;18.00;84.10;;;;;;5072679;28;20415;-71
2022/07/30 04:58:45;;;;;;;9.30;6.87;;;18.00;84.10;;;;;;5071673;28;20441;-71
2022/07/30 05:01:15;;;;;;;13.47;7.00;;;18.00;83.70;;;;;;5071476;28;20427;-71
2022/07/30 05:03:42;;;;;;;10.70;7.10;;;18.10;83.30;;;;;;5074964;28;20191;-70
2022/07/30 05:06:10;;;;;;;8.40;6.50;;;18.10;82.50;;;;;;5071110;28;20436;-72
2022/07/30 05:08:36;;;;;;;8.47;6.43;;;18.10;81.40;;;;;;5070877;28;20511;-73
2022/07/30 05:11:02;;;;;;;10.03;7.30;;;18.30;81.10;;;;;;5069709;28;20500;-71
2022/07/30 05:13:28;;;;;;;12.67;7.30;;;18.40;80.50;;;;;;5069597;28;20539;-72
2022/07/30 05:15:54;;;;;;;11.10;6.83;;;18.50;80.20;;;;;;5073092;28;20993;-71
2022/07/30 05:18:19;;;;;;;10.57;6.70;;;18.60;79.00;;;;;;5071050;28;20265;-70
2022/07/30 05:20:45;;;;;;;9.63;7.70;;;18.70;79.00;;;;;;5065830;28;20648;-71
2022/07/30 05:23:10;;;;;;;12.53;7.73;;;18.70;79.00;;;;;;5072799;28;20191;-71
2022/07/30 05:25:36;;;;;;;9.37;7.03;;;18.80;78.90;;;;;;5073915;28;20182;-72
2022/07/30 05:28:02;;;;;;;10.33;7.90;;;18.80;79.00;;;;;;5072010;28;20595;-70
2022/07/30 05:30:27;;;;;;;11.77;7.23;;;18.70;79.00;;;;;;5074820;28;20538;-71
2022/07/30 05:32:53;;;;;;;9.90;7.30;;;18.80;78.40;;;;;;5072384;28;20203;-70
2022/07/30 05:35:19;;;;;;;12.03;6.40;;;18.80;78.30;;;;;;5067441;28;20266;-70
2022/07/30 05:37:44;;;;;;;9.77;6.60;;;18.80;78.00;;;;;;5069751;28;20577;-72
2022/07/30 05:40:10;;;;;;;16.17;7.90;;;18.90;77.40;;;;;;5072637;28;20178;-71
2022/07/30 05:42:36;;;;;;;8.00;6.97;;;19.00;76.70;;;;;;5073263;28;20176;-72
2022/07/30 05:45:02;;;;;;;14.13;6.63;;;19.00;76.50;;;;;;5069870;28;20513;-70
2022/07/30 05:47:27;;;;;;;9.10;6.80;;;19.00;76.50;;;;;;5068727;28;20204;-70
2022/07/30 05:49:53;;;;;;;12.53;7.00;;;19.10;76.40;;;;;;5071932;28;20175;-71
2022/07/30 05:52:18;;;;;;;11.03;7.27;;;19.20;75.70;;;;;;5073529;28;20254;-71
2022/07/30 05:54:44;;;;;;;16.07;6.77;;;19.30;75.70;;;;;;5072819;28;20176;-71
2022/07/30 05:57:10;;;;;;;8.77;6.80;;;19.30;74.90;;;;;;5062572;28;20207;-71
2022/07/30 05:59:36;;;;;;;11.17;6.70;;;19.40;74.80;;;;;;5070160;28;20198;-71
2022/07/30 06:02:02;;;;;;;9.90;7.30;;;19.50;74.80;;;;;;5072011;28;20218;-71
2022/07/30 06:04:28;;;;;;;14.83;7.50;;;19.60;73.50;;;;;;5069114;28;20183;-71
2022/07/30 06:06:54;;;;;;;12.03;7.70;;;19.70;73.70;;;;;;5070826;28;20515;-71
2022/07/30 06:09:19;;;;;;;11.87;7.07;;;19.80;73.70;;;;;;5069404;28;20472;-69
2022/07/30 06:11:45;;;;;;;10.00;7.00;;;19.80;73.50;;;;;;5068984;28;20265;-71
2022/07/30 06:14:11;;;;;;;13.10;6.80;;;19.90;73.20;;;;;;5066912;28;20180;-71
2022/07/30 06:16:36;;;;;;;11.60;7.33;;;19.90;72.60;;;;;;5066735;28;20203;-71
2022/07/30 06:19:02;;;;;;;9.50;6.97;;;20.00;72.40;;;;;;5072842;28;20180;-70
2022/07/30 06:21:28;;;;;;;9.83;6.83;;;20.10;72.30;;;;;;5072587;28;20666;-70
2022/07/30 06:23:53;;;;;;;8.50;6.77;;;20.20;71.80;;;;;;5070022;28;20176;-71
2022/07/30 06:26:19;;;;;;;14.13;7.10;;;20.30;71.00;;;;;;5073355;28;20434;-73
2022/07/30 06:28:45;;;;;;;10.87;7.63;;;20.30;71.10;;;;;;5071627;28;20184;-70
2022/07/30 06:31:10;;;;;;;9.77;7.47;;;20.30;71.30;;;;;;5074456;28;20291;-72
2022/07/30 06:33:36;;;;;;;10.53;6.90;;;20.30;71.30;;;;;;5074020;28;20178;-71
2022/07/30 06:36:02;;;;;;;9.77;7.03;;;20.50;70.70;;;;;;5072788;28;20180;-73
2022/07/30 06:38:27;;;;;;;10.80;7.37;;;20.60;70.10;;;;;;5070711;28;20200;-72
2022/07/30 06:40:53;;;;;;;9.70;6.80;;;20.60;70.40;;;;;;5077968;28;20237;-70
2022/07/30 06:43:19;;;;;;;8.97;6.83;;;20.60;70.40;;;;;;5070180;28;20581;-71
2022/07/30 06:45:45;;;;;;;11.50;8.17;;;20.70;69.80;;;;;;5075723;28;20187;-72
2022/07/30 06:48:11;;;;;;;7.80;6.50;;;20.80;69.50;;;;;;5072245;28;20458;-72
2022/07/30 06:50:36;;;;;;;10.40;6.80;;;20.90;67.70;;;;;;5071191;28;20232;-71
2022/07/30 06:53:02;;;;;;;9.40;7.10;;;21.10;67.70;;;;;;5076986;28;20177;-72
2022/07/30 06:55:28;;;;;;;11.03;8.17;;;21.20;67.00;;;;;;5075964;28;20628;-72
2022/07/30 06:57:53;;;;;;;14.27;7.60;;;21.30;66.30;;;;;;5070934;28;20675;-74
2022/07/30 07:00:19;;;;;;;13.97;7.70;;;21.40;66.10;;;;;;5078883;28;20233;-72
2022/07/30 07:02:45;;;;;;;12.53;8.67;;;21.40;65.80;;;;;;5077378;28;20243;-72
2022/07/30 07:05:11;;;;;;;12.77;8.87;;;21.50;65.60;;;;;;5071319;28;20915;-72
2022/07/30 07:07:37;;;;;;;10.57;8.03;;;21.50;65.40;;;;;;5071074;28;20595;-72
2022/07/30 07:10:03;;;;;;;10.60;7.30;;;21.50;65.40;;;;;;5076304;28;20585;-72
2022/07/30 07:12:28;;;;;;;12.70;7.67;;;21.50;65.80;;;;;;5075167;28;20212;-75
2022/07/30 07:14:54;;;;;;;9.83;6.87;;;21.60;65.70;;;;;;5078596;28;20425;-73
2022/07/30 07:17:19;;;;;;;13.63;8.20;;;21.60;64.70;;;;;;5076249;28;20321;-72
2022/07/30 07:19:45;;;;;;;12.13;7.73;;;21.70;63.90;;;;;;5070322;28;20183;-71
2022/07/30 07:22:11;;;;;;;13.63;8.17;;;21.70;63.50;;;;;;5080483;28;20668;-73
2022/07/30 07:24:36;;;;;;;12.57;8.13;;;21.70;63.20;;;;;;5081154;28;20243;-73
2022/07/30 07:27:02;;;;;;;12.77;7.43;;;21.80;63.70;;;;;;5077269;28;20214;-72
2022/07/30 07:29:28;;;;;;;12.50;7.60;;;21.80;63.50;;;;;;5080685;28;20261;-71
2022/07/30 07:31:54;;;;;;;10.63;7.50;;;21.90;63.70;;;;;;5077289;28;20510;-73
2022/07/30 07:34:19;;;;;;;11.73;8.20;;;22.00;63.20;;;;;;5078000;28;20193;-76
2022/07/30 07:36:45;;;;;;;10.20;7.47;;;22.20;62.90;;;;;;5077927;28;20240;-73
2022/07/30 07:39:10;;;;;;;10.60;8.33;;;22.20;62.60;;;;;;5075544;28;20210;-75
2022/07/30 07:41:36;;;;;;;13.90;8.20;;;22.20;62.00;;;;;;5078048;28;20210;-74
2022/07/30 07:44:03;;;;;;;9.20;6.47;;;22.20;61.70;;;;;;5078753;28;20186;-73
2022/07/30 07:46:29;;;;;;;13.40;7.07;;;22.30;61.90;;;;;;5065780;28;20441;-73
2022/07/30 07:48:54;;;;;;;12.60;6.03;;;22.40;60.60;;;;;;5075620;28;20417;-71
2022/07/30 07:51:20;;;;;;;11.20;7.23;;;22.30;60.40;;;;;;5063744;28;20218;-72
2022/07/30 07:53:46;;;;;;;10.47;6.50;;;22.40;59.60;;;;;;5076558;28;20202;-72
2022/07/30 07:56:12;;;;;;;7.70;6.27;;;22.40;59.90;;;;;;5075756;28;20202;-73
2022/07/30 07:58:38;;;;;;;7.70;5.97;;;22.40;60.40;;;;;;5073505;28;20195;-73
2022/07/30 08:01:04;;;;;;;10.80;6.30;;;22.50;60.40;;;;;;5075640;28;20425;-74
2022/07/30 08:03:29;;;;;;;7.40;6.17;;;22.50;59.30;;;;;;5078561;28;20625;-71
2022/07/30 08:05:55;;;;;;;8.67;7.27;;;22.60;59.70;;;;;;5079307;28;20187;-72
2022/07/30 08:08:21;;;;;;;12.80;8.10;;;22.60;58.90;;;;;;5074280;28;20607;-71
2022/07/30 08:10:47;;;;;;;9.80;6.57;;;22.60;60.30;;;;;;5066856;28;20861;-73
2022/07/30 08:13:14;;;;;;;8.90;6.83;;;22.60;60.60;;;;;;5075308;28;20183;-72
2022/07/30 08:15:40;;;;;;;7.50;6.67;;;22.70;59.50;;;;;;5075345;28;20504;-72
2022/07/30 08:18:09;;;;;;;7.83;5.93;;;22.80;59.20;;;;;;5077077;28;20477;-73
2022/07/30 08:20:36;;;;;;;9.00;6.03;;;22.90;58.20;;;;;;5077339;28;20474;-74
2022/07/30 08:23:03;;;;;;;9.50;6.20;;;23.10;58.10;;;;;;5070266;28;20420;-72
2022/07/30 08:25:28;;;;;;;11.73;6.80;;;23.10;58.00;;;;;;5076936;28;20418;-73
2022/07/30 08:27:54;;;;;;;6.70;6.20;;;23.10;57.20;;;;;;5072867;28;20466;-74
2022/07/30 08:30:20;;;;;;;8.13;6.43;;;23.10;56.90;;;;;;5074575;28;20246;-72
2022/07/30 08:32:45;;;;;;;11.47;7.30;;;23.10;56.60;;;;;;5075830;28;20195;-72
2022/07/30 08:35:11;;;;;;;10.73;6.43;;;23.00;57.00;;;;;;5073286;28;20569;-73
2022/07/30 08:37:39;;;;;;;8.10;6.17;;;22.90;57.40;;;;;;5072130;28;20208;-72
2022/07/30 08:40:05;;;;;;;11.47;6.43;;;23.00;57.20;;;;;;5074452;28;20176;-75
2022/07/30 08:42:33;;;;;;;8.13;5.70;;;23.00;55.80;;;;;;5073778;28;20464;-72
2022/07/30 08:44:59;;;;;;;9.60;6.40;;;23.10;55.40;;;;;;5070011;28;20427;-72
2022/07/30 08:47:32;;;;;;;8.00;6.10;;;23.40;55.30;;;;;;5071038;28;20454;-73
2022/07/30 08:50:04;;;;;;;8.70;5.83;;;23.50;54.60;;;;;;5071350;28;20431;-73
2022/07/30 08:52:36;;;;;;;7.73;5.97;;;23.70;54.60;;;;;;5064498;28;20469;-73
2022/07/30 08:55:03;;;;;;;7.90;6.10;;;23.80;53.70;;;;;;5069986;28;20423;-74
2022/07/30 08:57:30;;;;;;;7.80;5.97;;;23.40;53.70;;;;;;5069719;28;20482;-73
2022/07/30 08:59:59;;;;;;;13.53;5.97;;;23.40;54.20;;;;;;5071268;28;20469;-73
2022/07/30 09:02:25;;;;;;;7.70;6.13;;;23.40;54.40;;;;;;5068889;28;20770;-73
2022/07/30 09:04:50;;;;;;;10.87;6.03;;;23.40;54.20;;;;;;5071327;28;21214;-74
2022/07/30 09:07:16;;;;;;;12.53;5.93;;;23.60;53.20;;;;;;5066471;28;20454;-74
2022/07/30 09:09:42;;;;;;;9.27;6.00;;;23.80;52.90;;;;;;5070624;28;20271;-73
2022/07/30 09:12:35;;;;;;;11.30;6.43;;;23.80;53.00;;;;;;5068686;28;20206;-73
2022/07/30 09:15:14;;;;;;;10.90;6.73;;;23.90;53.20;;;;;;5069641;28;20183;-75
2022/07/30 09:17:53;;;;;;;10.50;6.63;;;23.90;53.40;;;;;;5071406;28;20544;-74
2022/07/30 09:20:21;;;;;;;9.10;6.53;;;23.90;53.00;;;;;;5070329;28;20438;-75
2022/07/30 09:22:52;;;;;;;9.57;6.30;;;23.70;52.10;;;;;;5068923;28;20413;-74
2022/07/30 09:25:38;;;;;;;6.80;6.20;;;23.90;52.20;;;;;;5068385;28;20420;-74
2022/07/30 09:28:05;;;;;;;6.57;5.57;;;24.00;52.10;;;;;;5065117;28;20460;-72
2022/07/30 09:30:52;;;;;;;6.90;5.83;;;24.10;52.20;;;;;;5065492;28;20515;-74
2022/07/30 09:33:36;;;;;;;10.20;6.47;;;24.40;52.40;;;;;;5072179;28;20428;-74
2022/07/30 09:36:04;;;;;;;7.97;6.13;;;24.50;50.30;;;;;;5074376;28;20421;-73
2022/07/30 09:38:43;;;;;;;9.30;5.50;;;24.30;51.80;;;;;;5073404;28;20452;-73
2022/07/30 09:41:09;;;;;;;7.60;5.90;;;24.10;51.40;;;;;;5071950;28;20396;-73
2022/07/30 09:43:42;;;;;;;8.63;5.50;;;24.10;52.20;;;;;;5074627;28;20425;-75
2022/07/30 09:46:08;;;;;;;9.53;5.37;;;24.30;51.00;;;;;;5058166;28;20527;-74
2022/07/30 09:48:33;;;;;;;7.77;4.77;;;24.50;50.20;;;;;;5070176;28;20452;-74
2022/07/30 09:50:59;;;;;;;5.93;4.80;;;24.60;49.80;;;;;;5071509;28;20205;-72
2022/07/30 09:53:25;;;;;;;9.07;6.00;;;24.60;49.70;;;;;;5070143;28;20178;-72
2022/07/30 09:55:51;;;;;;;7.30;5.20;;;24.60;50.10;;;;;;5072979;28;20184;-75
2022/07/30 09:58:17;;;;;;;8.20;5.87;;;24.40;50.30;;;;;;5071623;28;20517;-73
2022/07/30 10:00:43;;;;;;;6.20;5.20;;;24.30;51.20;;;;;;5074281;28;20193;-71
2022/07/30 10:03:24;;;;;;;7.10;5.33;;;24.30;50.60;;;;;;5074303;28;20424;-74
2022/07/30 10:05:58;;;;;;;8.23;4.80;;;24.50;50.20;;;;;;5071401;28;20448;-73
2022/07/30 10:08:38;;;;;;;10.30;5.40;;;24.60;50.10;;;;;;5063715;28;20505;-72
2022/07/30 10:11:04;;;;;;;6.43;4.87;;;25.00;47.80;;;;;;5073269;28;20465;-73
2022/07/30 10:13:32;;;;;;;7.30;5.00;;;25.20;47.40;;;;;;5072789;28;20422;-74
2022/07/30 10:15:59;;;;;;;9.60;4.67;;;24.90;48.20;;;;;;5066539;28;20513;-77
2022/07/30 10:18:25;;;;;;;5.50;4.47;;;25.30;47.50;;;;;;5072289;28;20862;-75
2022/07/30 10:20:50;;;;;;;6.77;5.00;;;25.60;47.50;;;;;;5063464;28;20430;-70
2022/07/30 10:23:16;;;;;;;9.37;4.97;;;25.40;46.90;;;;;;5069013;28;20416;-68
2022/07/30 10:25:43;;;;;;;6.90;5.10;;;25.40;46.30;;;;;;5071076;28;20214;-74
2022/07/30 10:28:09;;;;;;;6.63;4.80;;;25.60;45.50;;;;;;5063131;28;20213;-70
2022/07/30 10:30:36;;;;;;;11.00;5.10;;;25.90;45.50;;;;;;5070730;28;20466;-74
2022/07/30 10:33:02;;;;;;;8.80;4.30;;;26.00;44.60;;;;;;5067534;28;20481;-72
2022/07/30 10:35:28;;;;;;;6.43;4.93;;;25.50;45.90;;;;;;5059345;28;20417;-70
2022/07/30 10:37:56;;;;;;;4.83;4.60;;;25.30;46.10;;;;;;5066784;28;20451;-70
2022/07/30 10:40:39;;;;;;;4.70;4.30;;;25.60;45.80;;;;;;5070033;28;20446;-76
2022/07/30 10:43:49;;;;;;;10.93;4.93;;;25.30;46.20;;;;;;5069364;28;20439;-74
2022/07/30 10:47:01;;;;;;;6.10;4.97;;;25.50;45.80;;;;;;5027112;28;20468;-73
2022/07/30 10:49:27;;;;;;;4.57;4.30;;;25.30;46.90;;;;;;5064321;28;20412;-73
2022/07/30 10:51:56;;;;;;;8.10;4.97;;;25.40;47.10;;;;;;5067892;28;20834;-73
2022/07/30 10:54:33;;;;;;;6.03;4.30;;;25.60;46.20;;;;;;5065043;28;20434;-73
2022/07/30 10:57:20;;;;;;;5.57;4.13;;;25.80;44.70;;;;;;5064889;28;20460;-73
2022/07/30 10:59:48;;;;;;;6.60;3.93;;;26.10;44.50;;;;;;5069506;28;20528;-74
2022/07/30 11:02:18;;;;;;;8.47;4.17;;;26.50;42.60;;;;;;5069962;28;20524;-72
2022/07/30 11:04:44;;;;;;;8.13;5.17;;;26.70;43.20;;;;;;5067239;28;20946;-75
2022/07/30 11:07:28;;;;;;;8.60;4.70;;;26.80;42.60;;;;;;5068398;28;20468;-79
2022/07/30 11:09:56;;;;;;;11.63;4.63;;;25.90;45.30;;;;;;5068519;28;20183;-72
2022/07/30 11:12:40;;;;;;;10.33;4.60;;;25.70;45.50;;;;;;5064471;28;20909;-76
2022/07/30 11:15:07;;;;;;;7.23;4.63;;;26.10;43.90;;;;;;5066296;28;20786;-74
2022/07/30 11:18:02;;;;;;;7.13;4.10;;;25.80;44.20;;;;;;5062151;28;20498;-75
2022/07/30 11:20:29;;;;;;;9.70;4.70;;;26.10;43.70;;;;;;5069498;28;20428;-73
2022/07/30 11:23:19;;;;;;;15.70;5.60;;;26.30;42.80;;;;;;5065153;28;20582;-76
2022/07/30 11:25:46;;;;;;;6.57;4.37;;;26.60;43.00;;;;;;5066737;28;20413;-75
2022/07/30 11:28:38;;;;;;;10.07;4.40;;;26.90;43.10;;;;;;5066761;28;20647;-73
2022/07/30 11:31:34;;;;;;;5.00;4.30;;;27.10;43.50;;;;;;5063687;28;20873;-74
2022/07/30 11:34:18;;;;;;;8.30;5.37;;;26.00;43.40;;;;;;5068101;28;20411;-72
2022/07/30 11:37:16;;;;;;;5.87;3.50;;;25.80;43.10;;;;;;5063734;28;20436;-73
2022/07/30 11:39:56;;;;;;;8.53;4.67;;;26.10;43.10;;;;;;5067610;28;20416;-73
2022/07/30 11:42:32;;;;;;;5.10;3.90;;;26.60;42.30;;;;;;5062777;28;20417;-71
2022/07/30 11:45:16;;;;;;;6.93;4.77;;;26.70;41.10;;;;;;5066894;28;20441;-72
2022/07/30 11:47:48;;;;;;;5.43;4.10;;;26.10;43.00;;;;;;5062500;28;20456;-71
2022/07/30 11:50:22;;;;;;;6.90;3.80;;;25.70;43.80;;;;;;5058953;28;20420;-70
2022/07/30 11:52:49;;;;;;;7.80;4.23;;;25.90;44.10;;;;;;5061979;28;20430;-72
2022/07/30 11:55:23;;;;;;;8.60;4.10;;;25.60;45.00;;;;;;5064738;28;20414;-72
2022/07/30 11:57:48;;;;;;;13.53;4.50;;;25.90;44.70;;;;;;5059393;28;20452;-71
2022/07/30 12:00:17;;;;;;;8.13;4.80;;;26.70;43.00;;;;;;5057681;28;20415;-72
2022/07/30 12:02:43;;;;;;;6.63;4.30;;;27.10;42.00;;;;;;5063901;28;20182;-71
2022/07/30 12:05:08;;;;;;;5.57;4.70;;;27.40;42.60;;;;;;5061591;28;20416;-72
2022/07/30 12:07:34;;;;;;;5.20;4.37;;;26.60;42.20;;;;;;5059717;28;20444;-72
2022/07/30 12:10:16;;;;;;;7.90;4.90;;;26.10;43.70;;;;;;5066162;28;20191;-73
2022/07/30 12:12:43;;;;;;;9.23;5.13;;;26.40;43.80;;;;;;5067765;28;20243;-73
2022/07/30 12:15:10;;;;;;;6.70;4.60;;;26.60;43.10;;;;;;5067711;28;20459;-72
2022/07/30 12:17:45;;;;;;;7.43;4.37;;;26.90;41.50;;;;;;5065104;28;20989;-71
2022/07/30 12:20:19;;;;;;;7.67;4.50;;;26.80;41.50;;;;;;5067998;28;20482;-72
2022/07/30 12:22:46;;;;;;;4.93;4.00;;;26.50;42.30;;;;;;5064243;28;20421;-72
2022/07/30 12:25:13;;;;;;;6.90;4.10;;;26.20;42.40;;;;;;5065843;28;20965;-72
2022/07/30 12:27:39;;;;;;;6.33;4.30;;;26.70;41.80;;;;;;5065855;28;20453;-71
2022/07/30 12:30:07;;;;;;;3.90;3.50;;;27.00;41.40;;;;;;5064946;28;20947;-70
2022/07/30 12:32:34;;;;;;;6.10;3.67;;;27.40;41.10;;;;;;5061638;28;20955;-73
2022/07/30 12:34:59;;;;;;;6.43;4.13;;;28.00;38.60;;;;;;5060554;28;20421;-72
2022/07/30 12:37:25;;;;;;;4.67;3.70;;;27.70;38.70;;;;;;5064807;28;20749;-72
2022/07/30 12:40:10;;;;;;;6.70;3.40;;;28.00;38.80;;;;;;5067705;28;20183;-72
2022/07/30 12:42:47;;;;;;;9.63;4.33;;;28.40;37.60;;;;;;5058842;28;20188;-72
2022/07/30 12:45:29;;;;;;;6.07;4.00;;;28.70;37.80;;;;;;5064392;28;20922;-72
2022/07/30 12:47:54;;;;;;;6.33;3.63;;;28.70;37.40;;;;;;5065357;28;20539;-73
2022/07/30 12:50:20;;;;;;;4.20;3.90;;;27.90;37.80;;;;;;5066520;28;20537;-73
2022/07/30 12:52:50;;;;;;;7.37;4.20;;;28.00;37.20;;;;;;5065237;28;20236;-72